sensor_id;sensor_type;location;lat;lon;timestamp;P1;durP1;ratioP1;P2;durP2;ratioP2
44078;SDS011;29744;49.078;12.878;2023-09-30T00:01:21;1.90;;;1.20;;
44078;SDS011;29744;49.078;12.878;2023-09-30T00:06:22;3.00;;;1.63;;
44078;SDS011;29744;49.078;12.878;2023-09-30T00:11:23;1.90;;;1.20;;
44078;SDS011;29744;49.078;12.878;2023-09-30T00:16:23;1.67;;;1.08;;
44078;SDS011;29744;49.078;12.878;2023-09-30T00:21:24;2.00;;;1.10;;
44078;SDS011;29744;49.078;12.878;2023-09-30T00:26:24;2.17;;;1.10;;
44078;SDS011;29744;49.078;12.878;2023-09-30T00:31:25;2.05;;;1.30;;
44078;SDS011;29744;49.078;12.878;2023-09-30T00:36:25;2.30;;;1.30;;
44078;SDS011;29744;49.078;12.878;2023-09-30T00:41:26;2.13;;;1.30;;
44078;SDS011;29744;49.078;12.878;2023-09-30T00:46:28;2.42;;;1.20;;
44078;SDS011;29744;49.078;12.878;2023-09-30T00:51:30;2.30;;;1.30;;
44078;SDS011;29744;49.078;12.878;2023-09-30T00:56:33;2.42;;;1.38;;
44078;SDS011;29744;49.078;12.878;2023-09-30T01:01:33;2.85;;;1.45;;
44078;SDS011;29744;49.078;12.878;2023-09-30T01:06:34;2.10;;;1.10;;
44078;SDS011;29744;49.078;12.878;2023-09-30T01:11:34;2.42;;;1.42;;
44078;SDS011;29744;49.078;12.878;2023-09-30T01:16:35;2.85;;;1.40;;
44078;SDS011;29744;49.078;12.878;2023-09-30T01:21:35;2.15;;;1.25;;
44078;SDS011;29744;49.078;12.878;2023-09-30T01:26:36;2.38;;;1.45;;
44078;SDS011;29744;49.078;12.878;2023-09-30T01:31:39;2.50;;;1.48;;
44078;SDS011;29744;49.078;12.878;2023-09-30T01:36:39;3.13;;;1.45;;
44078;SDS011;29744;49.078;12.878;2023-09-30T01:41:40;2.45;;;1.30;;
44078;SDS011;29744;49.078;12.878;2023-09-30T01:46:41;2.58;;;1.50;;
44078;SDS011;29744;49.078;12.878;2023-09-30T01:51:41;2.65;;;1.40;;
44078;SDS011;29744;49.078;12.878;2023-09-30T01:56:41;2.58;;;1.50;;
44078;SDS011;29744;49.078;12.878;2023-09-30T02:01:42;3.03;;;1.47;;
44078;SDS011;29744;49.078;12.878;2023-09-30T02:06:42;2.15;;;1.20;;
44078;SDS011;29744;49.078;12.878;2023-09-30T02:11:42;2.58;;;1.48;;
44078;SDS011;29744;49.078;12.878;2023-09-30T02:16:43;3.55;;;1.70;;
44078;SDS011;29744;49.078;12.878;2023-09-30T02:21:43;2.40;;;1.33;;
44078;SDS011;29744;49.078;12.878;2023-09-30T02:26:44;2.85;;;1.50;;
44078;SDS011;29744;49.078;12.878;2023-09-30T02:31:44;2.40;;;1.30;;
44078;SDS011;29744;49.078;12.878;2023-09-30T02:36:44;2.67;;;1.40;;
44078;SDS011;29744;49.078;12.878;2023-09-30T02:41:45;2.55;;;1.50;;
44078;SDS011;29744;49.078;12.878;2023-09-30T02:46:46;3.10;;;1.67;;
44078;SDS011;29744;49.078;12.878;2023-09-30T02:51:47;3.17;;;1.55;;
44078;SDS011;29744;49.078;12.878;2023-09-30T02:56:47;3.70;;;1.70;;
44078;SDS011;29744;49.078;12.878;2023-09-30T03:01:48;2.80;;;1.50;;
44078;SDS011;29744;49.078;12.878;2023-09-30T03:06:49;3.33;;;1.55;;
44078;SDS011;29744;49.078;12.878;2023-09-30T03:11:49;3.35;;;1.60;;
44078;SDS011;29744;49.078;12.878;2023-09-30T03:16:49;2.85;;;1.60;;
44078;SDS011;29744;49.078;12.878;2023-09-30T03:21:50;4.38;;;1.88;;
44078;SDS011;29744;49.078;12.878;2023-09-30T03:26:50;3.10;;;1.35;;
44078;SDS011;29744;49.078;12.878;2023-09-30T03:31:51;2.85;;;1.42;;
44078;SDS011;29744;49.078;12.878;2023-09-30T03:36:52;3.50;;;1.70;;
44078;SDS011;29744;49.078;12.878;2023-09-30T03:41:55;3.10;;;1.45;;
44078;SDS011;29744;49.078;12.878;2023-09-30T03:46:59;3.03;;;1.50;;
44078;SDS011;29744;49.078;12.878;2023-09-30T03:52:00;3.20;;;1.58;;
44078;SDS011;29744;49.078;12.878;2023-09-30T03:57:01;3.50;;;1.60;;
44078;SDS011;29744;49.078;12.878;2023-09-30T04:02:03;4.20;;;1.67;;
44078;SDS011;29744;49.078;12.878;2023-09-30T04:07:03;2.92;;;1.50;;
44078;SDS011;29744;49.078;12.878;2023-09-30T04:12:07;3.55;;;1.67;;
44078;SDS011;29744;49.078;12.878;2023-09-30T04:17:07;2.38;;;1.40;;
44078;SDS011;29744;49.078;12.878;2023-09-30T04:22:09;2.75;;;1.48;;
44078;SDS011;29744;49.078;12.878;2023-09-30T04:27:09;2.92;;;1.73;;
44078;SDS011;29744;49.078;12.878;2023-09-30T04:32:09;3.20;;;1.40;;
44078;SDS011;29744;49.078;12.878;2023-09-30T04:37:10;3.08;;;1.58;;
44078;SDS011;29744;49.078;12.878;2023-09-30T04:42:10;2.90;;;1.50;;
44078;SDS011;29744;49.078;12.878;2023-09-30T04:47:11;3.00;;;1.48;;
44078;SDS011;29744;49.078;12.878;2023-09-30T04:52:11;4.13;;;1.70;;
44078;SDS011;29744;49.078;12.878;2023-09-30T04:57:12;2.78;;;1.20;;
44078;SDS011;29744;49.078;12.878;2023-09-30T05:02:12;2.45;;;1.23;;
44078;SDS011;29744;49.078;12.878;2023-09-30T05:07:15;3.35;;;1.60;;
44078;SDS011;29744;49.078;12.878;2023-09-30T05:12:15;3.47;;;1.50;;
44078;SDS011;29744;49.078;12.878;2023-09-30T05:17:16;2.80;;;1.45;;
44078;SDS011;29744;49.078;12.878;2023-09-30T05:22:16;2.92;;;1.40;;
44078;SDS011;29744;49.078;12.878;2023-09-30T05:27:21;3.03;;;1.50;;
44078;SDS011;29744;49.078;12.878;2023-09-30T05:32:22;3.80;;;1.70;;
44078;SDS011;29744;49.078;12.878;2023-09-30T05:37:23;3.45;;;1.55;;
44078;SDS011;29744;49.078;12.878;2023-09-30T05:42:25;3.05;;;1.52;;
44078;SDS011;29744;49.078;12.878;2023-09-30T05:47:25;2.90;;;1.40;;
44078;SDS011;29744;49.078;12.878;2023-09-30T05:52:25;3.22;;;1.70;;
44078;SDS011;29744;49.078;12.878;2023-09-30T05:57:26;2.75;;;1.55;;
44078;SDS011;29744;49.078;12.878;2023-09-30T06:02:27;3.15;;;1.48;;
44078;SDS011;29744;49.078;12.878;2023-09-30T06:07:27;4.43;;;1.88;;
44078;SDS011;29744;49.078;12.878;2023-09-30T06:12:28;3.63;;;1.70;;
44078;SDS011;29744;49.078;12.878;2023-09-30T06:17:28;3.42;;;1.60;;
44078;SDS011;29744;49.078;12.878;2023-09-30T06:22:29;4.35;;;1.90;;
44078;SDS011;29744;49.078;12.878;2023-09-30T06:27:29;3.30;;;1.70;;
44078;SDS011;29744;49.078;12.878;2023-09-30T06:32:29;4.40;;;1.77;;
44078;SDS011;29744;49.078;12.878;2023-09-30T06:37:30;3.42;;;1.73;;
44078;SDS011;29744;49.078;12.878;2023-09-30T06:42:30;3.55;;;1.80;;
44078;SDS011;29744;49.078;12.878;2023-09-30T06:47:34;3.75;;;1.77;;
44078;SDS011;29744;49.078;12.878;2023-09-30T06:52:37;3.13;;;1.83;;
44078;SDS011;29744;49.078;12.878;2023-09-30T06:57:38;3.85;;;1.73;;
44078;SDS011;29744;49.078;12.878;2023-09-30T07:02:40;3.53;;;1.75;;
44078;SDS011;29744;49.078;12.878;2023-09-30T07:07:41;3.20;;;1.48;;
44078;SDS011;29744;49.078;12.878;2023-09-30T07:12:45;3.30;;;1.50;;
44078;SDS011;29744;49.078;12.878;2023-09-30T07:17:45;3.00;;;1.52;;
44078;SDS011;29744;49.078;12.878;2023-09-30T07:22:47;3.53;;;1.73;;
44078;SDS011;29744;49.078;12.878;2023-09-30T07:27:47;3.75;;;1.60;;
44078;SDS011;29744;49.078;12.878;2023-09-30T07:32:48;3.85;;;1.77;;
44078;SDS011;29744;49.078;12.878;2023-09-30T07:37:48;3.17;;;1.80;;
44078;SDS011;29744;49.078;12.878;2023-09-30T07:42:51;4.03;;;1.70;;
44078;SDS011;29744;49.078;12.878;2023-09-30T07:47:52;3.85;;;2.00;;
44078;SDS011;29744;49.078;12.878;2023-09-30T07:52:52;3.22;;;1.60;;
44078;SDS011;29744;49.078;12.878;2023-09-30T07:57:52;3.47;;;1.77;;
44078;SDS011;29744;49.078;12.878;2023-09-30T08:02:53;3.72;;;1.80;;
44078;SDS011;29744;49.078;12.878;2023-09-30T08:07:53;3.55;;;1.90;;
44078;SDS011;29744;49.078;12.878;2023-09-30T08:12:54;3.88;;;1.75;;
44078;SDS011;29744;49.078;12.878;2023-09-30T08:17:57;3.83;;;1.67;;
44078;SDS011;29744;49.078;12.878;2023-09-30T08:22:57;3.38;;;1.45;;
44078;SDS011;29744;49.078;12.878;2023-09-30T08:27:58;3.63;;;1.88;;
44078;SDS011;29744;49.078;12.878;2023-09-30T08:32:58;3.80;;;1.88;;
44078;SDS011;29744;49.078;12.878;2023-09-30T08:37:59;3.28;;;1.60;;
44078;SDS011;29744;49.078;12.878;2023-09-30T08:42:59;3.35;;;1.42;;
44078;SDS011;29744;49.078;12.878;2023-09-30T08:48:00;4.57;;;2.17;;
44078;SDS011;29744;49.078;12.878;2023-09-30T08:53:05;3.58;;;1.60;;
44078;SDS011;29744;49.078;12.878;2023-09-30T08:58:06;3.72;;;1.80;;
44078;SDS011;29744;49.078;12.878;2023-09-30T09:03:07;3.67;;;1.77;;
44078;SDS011;29744;49.078;12.878;2023-09-30T09:08:08;3.65;;;1.80;;
44078;SDS011;29744;49.078;12.878;2023-09-30T09:13:09;3.85;;;1.65;;
44078;SDS011;29744;49.078;12.878;2023-09-30T09:18:09;3.40;;;1.65;;
44078;SDS011;29744;49.078;12.878;2023-09-30T09:23:11;4.00;;;1.90;;
44078;SDS011;29744;49.078;12.878;2023-09-30T09:28:15;3.53;;;1.50;;
44078;SDS011;29744;49.078;12.878;2023-09-30T09:33:15;3.30;;;1.77;;
44078;SDS011;29744;49.078;12.878;2023-09-30T09:38:15;3.13;;;1.40;;
44078;SDS011;29744;49.078;12.878;2023-09-30T09:43:16;3.83;;;1.50;;
44078;SDS011;29744;49.078;12.878;2023-09-30T09:48:16;3.65;;;1.70;;
44078;SDS011;29744;49.078;12.878;2023-09-30T09:53:17;3.63;;;1.63;;
44078;SDS011;29744;49.078;12.878;2023-09-30T09:58:20;2.55;;;1.45;;
44078;SDS011;29744;49.078;12.878;2023-09-30T10:03:21;4.18;;;1.80;;
44078;SDS011;29744;49.078;12.878;2023-09-30T10:08:22;3.70;;;1.50;;
44078;SDS011;29744;49.078;12.878;2023-09-30T10:13:50;2.67;;;1.30;;
44078;SDS011;29744;49.078;12.878;2023-09-30T10:19:09;3.08;;;1.55;;
44078;SDS011;29744;49.078;12.878;2023-09-30T10:29:41;3.25;;;1.40;;
44078;SDS011;29744;49.078;12.878;2023-09-30T10:34:48;3.28;;;1.48;;
44078;SDS011;29744;49.078;12.878;2023-09-30T10:39:57;3.35;;;1.67;;
44078;SDS011;29744;49.078;12.878;2023-09-30T10:44:59;3.00;;;1.45;;
44078;SDS011;29744;49.078;12.878;2023-09-30T10:50:02;3.45;;;1.65;;
44078;SDS011;29744;49.078;12.878;2023-09-30T10:55:04;3.35;;;1.50;;
44078;SDS011;29744;49.078;12.878;2023-09-30T11:00:10;3.45;;;1.65;;
44078;SDS011;29744;49.078;12.878;2023-09-30T11:05:11;3.70;;;1.73;;
44078;SDS011;29744;49.078;12.878;2023-09-30T11:10:17;3.20;;;1.40;;
44078;SDS011;29744;49.078;12.878;2023-09-30T11:15:18;3.92;;;1.90;;
44078;SDS011;29744;49.078;12.878;2023-09-30T11:20:18;3.42;;;1.40;;
44078;SDS011;29744;49.078;12.878;2023-09-30T11:25:19;3.13;;;1.38;;
44078;SDS011;29744;49.078;12.878;2023-09-30T11:30:19;3.50;;;1.80;;
44078;SDS011;29744;49.078;12.878;2023-09-30T11:35:23;4.03;;;1.50;;
44078;SDS011;29744;49.078;12.878;2023-09-30T11:40:24;3.60;;;1.63;;
44078;SDS011;29744;49.078;12.878;2023-09-30T11:45:24;3.92;;;1.60;;
44078;SDS011;29744;49.078;12.878;2023-09-30T11:50:25;3.40;;;1.63;;
44078;SDS011;29744;49.078;12.878;2023-09-30T11:55:25;3.53;;;1.55;;
44078;SDS011;29744;49.078;12.878;2023-09-30T12:00:26;2.47;;;1.35;;
44078;SDS011;29744;49.078;12.878;2023-09-30T12:05:27;3.03;;;1.40;;
44078;SDS011;29744;49.078;12.878;2023-09-30T12:10:29;3.47;;;1.58;;
44078;SDS011;29744;49.078;12.878;2023-09-30T12:15:31;3.25;;;1.50;;
44078;SDS011;29744;49.078;12.878;2023-09-30T12:20:31;3.63;;;1.30;;
44078;SDS011;29744;49.078;12.878;2023-09-30T12:25:31;3.55;;;1.70;;
44078;SDS011;29744;49.078;12.878;2023-09-30T12:30:33;3.30;;;1.40;;
44078;SDS011;29744;49.078;12.878;2023-09-30T12:35:34;3.28;;;1.45;;
44078;SDS011;29744;49.078;12.878;2023-09-30T12:40:34;3.22;;;1.50;;
44078;SDS011;29744;49.078;12.878;2023-09-30T12:45:34;3.45;;;1.60;;
44078;SDS011;29744;49.078;12.878;2023-09-30T12:50:34;2.97;;;1.30;;
44078;SDS011;29744;49.078;12.878;2023-09-30T12:55:35;3.58;;;1.48;;
44078;SDS011;29744;49.078;12.878;2023-09-30T13:00:36;4.18;;;1.48;;
44078;SDS011;29744;49.078;12.878;2023-09-30T13:05:36;3.07;;;1.40;;
44078;SDS011;29744;49.078;12.878;2023-09-30T13:10:37;3.25;;;1.60;;
44078;SDS011;29744;49.078;12.878;2023-09-30T13:15:38;2.97;;;1.30;;
44078;SDS011;29744;49.078;12.878;2023-09-30T13:20:38;3.15;;;1.40;;
44078;SDS011;29744;49.078;12.878;2023-09-30T13:25:39;2.47;;;1.20;;
44078;SDS011;29744;49.078;12.878;2023-09-30T13:30:39;2.85;;;1.30;;
44078;SDS011;29744;49.078;12.878;2023-09-30T13:35:40;2.67;;;1.23;;
44078;SDS011;29744;49.078;12.878;2023-09-30T13:40:41;2.60;;;1.25;;
44078;SDS011;29744;49.078;12.878;2023-09-30T13:45:41;2.88;;;1.20;;
44078;SDS011;29744;49.078;12.878;2023-09-30T13:50:41;3.05;;;1.27;;
44078;SDS011;29744;49.078;12.878;2023-09-30T13:55:41;2.55;;;1.30;;
44078;SDS011;29744;49.078;12.878;2023-09-30T14:00:46;2.15;;;0.95;;
44078;SDS011;29744;49.078;12.878;2023-09-30T14:05:47;2.38;;;1.20;;
44078;SDS011;29744;49.078;12.878;2023-09-30T14:10:48;2.70;;;1.23;;
44078;SDS011;29744;49.078;12.878;2023-09-30T14:15:49;2.75;;;1.27;;
44078;SDS011;29744;49.078;12.878;2023-09-30T14:20:49;2.60;;;1.10;;
44078;SDS011;29744;49.078;12.878;2023-09-30T14:25:53;2.88;;;1.33;;
44078;SDS011;29744;49.078;12.878;2023-09-30T14:30:54;3.50;;;1.10;;
44078;SDS011;29744;49.078;12.878;2023-09-30T14:35:54;2.60;;;1.20;;
44078;SDS011;29744;49.078;12.878;2023-09-30T14:40:56;2.78;;;1.40;;
44078;SDS011;29744;49.078;12.878;2023-09-30T14:45:56;3.03;;;1.50;;
44078;SDS011;29744;49.078;12.878;2023-09-30T14:50:57;2.70;;;1.30;;
44078;SDS011;29744;49.078;12.878;2023-09-30T14:55:57;2.42;;;1.20;;
44078;SDS011;29744;49.078;12.878;2023-09-30T15:00:58;2.50;;;1.10;;
44078;SDS011;29744;49.078;12.878;2023-09-30T15:05:58;2.28;;;1.08;;
44078;SDS011;29744;49.078;12.878;2023-09-30T15:10:59;2.70;;;1.38;;
44078;SDS011;29744;49.078;12.878;2023-09-30T15:16:00;2.10;;;0.98;;
44078;SDS011;29744;49.078;12.878;2023-09-30T15:21:00;2.05;;;1.10;;
44078;SDS011;29744;49.078;12.878;2023-09-30T15:26:02;2.75;;;1.15;;
44078;SDS011;29744;49.078;12.878;2023-09-30T15:31:03;2.00;;;1.00;;
44078;SDS011;29744;49.078;12.878;2023-09-30T15:36:15;2.13;;;1.02;;
44078;SDS011;29744;49.078;12.878;2023-09-30T15:41:23;2.57;;;1.10;;
44078;SDS011;29744;49.078;12.878;2023-09-30T15:46:24;1.98;;;1.00;;
44078;SDS011;29744;49.078;12.878;2023-09-30T15:51:24;1.80;;;0.90;;
44078;SDS011;29744;49.078;12.878;2023-09-30T15:56:25;2.80;;;1.10;;
44078;SDS011;29744;49.078;12.878;2023-09-30T16:01:26;3.70;;;1.30;;
44078;SDS011;29744;49.078;12.878;2023-09-30T16:06:26;2.88;;;1.25;;
44078;SDS011;29744;49.078;12.878;2023-09-30T16:11:27;1.95;;;0.95;;
44078;SDS011;29744;49.078;12.878;2023-09-30T16:16:27;2.38;;;1.15;;
44078;SDS011;29744;49.078;12.878;2023-09-30T16:21:28;3.20;;;1.30;;
44078;SDS011;29744;49.078;12.878;2023-09-30T16:26:28;1.30;;;0.73;;
44078;SDS011;29744;49.078;12.878;2023-09-30T16:31:28;2.15;;;1.00;;
44078;SDS011;29744;49.078;12.878;2023-09-30T16:36:28;2.70;;;1.10;;
44078;SDS011;29744;49.078;12.878;2023-09-30T16:41:29;2.10;;;1.02;;
44078;SDS011;29744;49.078;12.878;2023-09-30T16:46:29;2.38;;;1.20;;
44078;SDS011;29744;49.078;12.878;2023-09-30T16:51:30;2.40;;;1.10;;
44078;SDS011;29744;49.078;12.878;2023-09-30T16:56:30;2.13;;;1.00;;
44078;SDS011;29744;49.078;12.878;2023-09-30T17:01:30;3.45;;;1.23;;
44078;SDS011;29744;49.078;12.878;2023-09-30T17:06:31;2.42;;;1.00;;
44078;SDS011;29744;49.078;12.878;2023-09-30T17:11:31;1.75;;;0.85;;
44078;SDS011;29744;49.078;12.878;2023-09-30T17:16:31;2.20;;;1.00;;
44078;SDS011;29744;49.078;12.878;2023-09-30T17:21:32;1.27;;;0.80;;
44078;SDS011;29744;49.078;12.878;2023-09-30T17:26:32;1.83;;;0.90;;
44078;SDS011;29744;49.078;12.878;2023-09-30T17:31:32;1.90;;;1.00;;
44078;SDS011;29744;49.078;12.878;2023-09-30T17:36:33;2.28;;;1.00;;
44078;SDS011;29744;49.078;12.878;2023-09-30T17:41:33;2.60;;;1.00;;
44078;SDS011;29744;49.078;12.878;2023-09-30T17:46:33;1.98;;;0.95;;
44078;SDS011;29744;49.078;12.878;2023-09-30T17:51:34;1.58;;;0.80;;
44078;SDS011;29744;49.078;12.878;2023-09-30T17:56:34;1.75;;;0.93;;
44078;SDS011;29744;49.078;12.878;2023-09-30T18:01:34;2.88;;;1.10;;
44078;SDS011;29744;49.078;12.878;2023-09-30T18:06:36;1.70;;;0.95;;
44078;SDS011;29744;49.078;12.878;2023-09-30T18:11:37;2.25;;;1.00;;
44078;SDS011;29744;49.078;12.878;2023-09-30T18:16:37;2.10;;;0.90;;
44078;SDS011;29744;49.078;12.878;2023-09-30T18:21:39;2.28;;;1.08;;
44078;SDS011;29744;49.078;12.878;2023-09-30T18:26:40;1.77;;;1.00;;
44078;SDS011;29744;49.078;12.878;2023-09-30T18:31:41;2.53;;;1.10;;
44078;SDS011;29744;49.078;12.878;2023-09-30T18:36:44;1.52;;;0.77;;
44078;SDS011;29744;49.078;12.878;2023-09-30T18:41:44;2.60;;;1.20;;
44078;SDS011;29744;49.078;12.878;2023-09-30T18:46:45;1.83;;;1.00;;
44078;SDS011;29744;49.078;12.878;2023-09-30T18:51:45;1.80;;;0.90;;
44078;SDS011;29744;49.078;12.878;2023-09-30T18:56:46;1.60;;;0.80;;
44078;SDS011;29744;49.078;12.878;2023-09-30T19:01:46;2.35;;;1.13;;
44078;SDS011;29744;49.078;12.878;2023-09-30T19:06:47;1.35;;;0.75;;
44078;SDS011;29744;49.078;12.878;2023-09-30T19:11:48;2.10;;;1.00;;
44078;SDS011;29744;49.078;12.878;2023-09-30T19:16:48;1.25;;;0.73;;
44078;SDS011;29744;49.078;12.878;2023-09-30T19:21:48;2.20;;;0.90;;
44078;SDS011;29744;49.078;12.878;2023-09-30T19:26:48;2.05;;;1.08;;
44078;SDS011;29744;49.078;12.878;2023-09-30T19:31:49;1.40;;;0.73;;
44078;SDS011;29744;49.078;12.878;2023-09-30T19:36:49;1.60;;;0.80;;
44078;SDS011;29744;49.078;12.878;2023-09-30T19:41:50;1.73;;;0.88;;
44078;SDS011;29744;49.078;12.878;2023-09-30T19:46:50;2.00;;;0.95;;
44078;SDS011;29744;49.078;12.878;2023-09-30T19:51:50;1.65;;;0.90;;
44078;SDS011;29744;49.078;12.878;2023-09-30T19:56:51;1.70;;;0.80;;
44078;SDS011;29744;49.078;12.878;2023-09-30T20:01:51;2.90;;;0.95;;
44078;SDS011;29744;49.078;12.878;2023-09-30T20:06:52;2.20;;;1.00;;
44078;SDS011;29744;49.078;12.878;2023-09-30T20:11:53;1.88;;;1.00;;
44078;SDS011;29744;49.078;12.878;2023-09-30T20:16:58;1.77;;;0.85;;
44078;SDS011;29744;49.078;12.878;2023-09-30T20:21:58;1.25;;;0.80;;
44078;SDS011;29744;49.078;12.878;2023-09-30T20:27:00;1.88;;;0.90;;
44078;SDS011;29744;49.078;12.878;2023-09-30T20:32:01;2.10;;;1.00;;
44078;SDS011;29744;49.078;12.878;2023-09-30T20:37:02;2.22;;;1.10;;
44078;SDS011;29744;49.078;12.878;2023-09-30T20:42:03;1.85;;;1.00;;
44078;SDS011;29744;49.078;12.878;2023-09-30T20:47:03;1.90;;;0.98;;
44078;SDS011;29744;49.078;12.878;2023-09-30T20:52:05;1.17;;;0.80;;
44078;SDS011;29744;49.078;12.878;2023-09-30T20:57:06;1.58;;;0.70;;
44078;SDS011;29744;49.078;12.878;2023-09-30T21:02:06;1.30;;;0.80;;
44078;SDS011;29744;49.078;12.878;2023-09-30T21:07:09;1.38;;;0.75;;
44078;SDS011;29744;49.078;12.878;2023-09-30T21:12:10;1.48;;;0.80;;
44078;SDS011;29744;49.078;12.878;2023-09-30T21:17:13;2.10;;;0.90;;
44078;SDS011;29744;49.078;12.878;2023-09-30T21:22:14;1.73;;;0.80;;
44078;SDS011;29744;49.078;12.878;2023-09-30T21:27:14;1.80;;;0.88;;
44078;SDS011;29744;49.078;12.878;2023-09-30T21:32:15;2.55;;;0.95;;
44078;SDS011;29744;49.078;12.878;2023-09-30T21:37:15;1.60;;;0.85;;
44078;SDS011;29744;49.078;12.878;2023-09-30T21:42:16;1.48;;;0.90;;
44078;SDS011;29744;49.078;12.878;2023-09-30T21:47:16;1.55;;;0.75;;
44078;SDS011;29744;49.078;12.878;2023-09-30T21:52:17;1.38;;;0.85;;
44078;SDS011;29744;49.078;12.878;2023-09-30T21:57:17;1.33;;;0.75;;
44078;SDS011;29744;49.078;12.878;2023-09-30T22:02:18;1.73;;;0.90;;
44078;SDS011;29744;49.078;12.878;2023-09-30T22:07:19;1.55;;;0.82;;
44078;SDS011;29744;49.078;12.878;2023-09-30T22:12:22;1.48;;;0.77;;
44078;SDS011;29744;49.078;12.878;2023-09-30T22:17:22;2.00;;;0.95;;
44078;SDS011;29744;49.078;12.878;2023-09-30T22:22:22;1.42;;;0.80;;
44078;SDS011;29744;49.078;12.878;2023-09-30T22:27:23;1.30;;;0.80;;
44078;SDS011;29744;49.078;12.878;2023-09-30T22:32:24;1.52;;;0.80;;
44078;SDS011;29744;49.078;12.878;2023-09-30T22:37:24;2.05;;;1.00;;
44078;SDS011;29744;49.078;12.878;2023-09-30T22:42:25;1.15;;;0.70;;
44078;SDS011;29744;49.078;12.878;2023-09-30T22:47:25;1.48;;;0.80;;
44078;SDS011;29744;49.078;12.878;2023-09-30T22:52:26;1.58;;;0.80;;
44078;SDS011;29744;49.078;12.878;2023-09-30T22:57:26;1.45;;;0.80;;
44078;SDS011;29744;49.078;12.878;2023-09-30T23:02:26;1.80;;;0.90;;
44078;SDS011;29744;49.078;12.878;2023-09-30T23:07:29;1.75;;;0.80;;
44078;SDS011;29744;49.078;12.878;2023-09-30T23:12:29;1.52;;;0.82;;
44078;SDS011;29744;49.078;12.878;2023-09-30T23:17:29;1.70;;;1.00;;
44078;SDS011;29744;49.078;12.878;2023-09-30T23:22:30;2.03;;;1.00;;
44078;SDS011;29744;49.078;12.878;2023-09-30T23:27:30;1.42;;;0.80;;
44078;SDS011;29744;49.078;12.878;2023-09-30T23:32:31;1.95;;;0.90;;
44078;SDS011;29744;49.078;12.878;2023-09-30T23:37:31;1.60;;;0.80;;
44078;SDS011;29744;49.078;12.878;2023-09-30T23:42:32;1.45;;;0.90;;
44078;SDS011;29744;49.078;12.878;2023-09-30T23:47:33;1.92;;;0.90;;
44078;SDS011;29744;49.078;12.878;2023-09-30T23:52:36;1.58;;;0.90;;
44078;SDS011;29744;49.078;12.878;2023-09-30T23:57:37;1.52;;;0.82;;
